Flight Track Log - Related Links

Times and Time Zones

All times are in EDT time to prevent confusion due to time zone crossing. See the SKQ45 flight status page for this flight to view local times or setup timezone preferences in your user account.

Time Position Orientation Groundspeed Altitude Reporting Facility
EDT Latitude Longitude Course Direction KTS MPH feet Rate Location/Type
Tue 10:58:32 PM 37.0672 -88.7425 328° Northwest 179 206 1,300  Level Memphis Center
Tue 10:59:32 PM 37.1092 -88.7753 328° Northwest 92 106 2,900 900 Climbing Memphis Center
Tue 11:00:32 PM 37.1536 -88.8214 320° Northwest 142 163 3,100 100 Climbing Memphis Center
Tue 11:01:32 PM 37.2064 -88.8725 322° Northwest 190 219 3,100  Level Memphis Center
Tue 11:02:32 PM 37.2569 -88.9183 324° Northwest 224 258 3,100 650 Level Memphis Center
Tue 11:03:32 PM 37.3075 -88.9697 321° Northwest 235 270 4,400 1,595 Climbing Memphis Center
Tue 11:05:10 PM 37.3672 -89.0203 326° Northwest 180 207 7,300 1,774 Climbing Kansas City Center
Tue 11:06:11 PM 37.4033 -89.0558 322° Northwest 166 191 9,100 1,306 Climbing Kansas City Center
Tue 11:07:14 PM 37.4397 -89.0900 323° Northwest 164 189 10,000 435 Climbing Kansas City Center
Tue 11:08:15 PM 37.4878 -89.1344 324° Northwest 203 234 10,000  Level Kansas City Center
Tue 11:09:14 PM 37.5392 -89.1861 321° Northwest 229 264 10,000  Level Kansas City Center
Tue 11:10:18 PM 37.5906 -89.2358 323° Northwest 233 268 10,000  Level Kansas City Center
Tue 11:11:18 PM 37.6422 -89.2844 323° Northwest 232 267 10,000  Level Kansas City Center
Tue 11:12:18 PM 37.7053 -89.3450 323° Northwest 235 270 10,000  Level Kansas City Center
Tue 11:13:19 PM 37.7572 -89.3953 323° Northwest 235 270 10,000  Level Kansas City Center
Tue 11:14:22 PM 37.8028 -89.4403 322° Northwest 236 272 10,000  Level Kansas City Center
Tue 11:15:22 PM 37.8644 -89.4981 324° Northwest 243 280 10,000  Level Kansas City Center
Tue 11:16:24 PM 37.9175 -89.5500 322° Northwest 241 277 10,000  Level Kansas City Center
Tue 11:17:24 PM 37.9747 -89.6050 323° Northwest 240 276 10,000  Level Kansas City Center
Tue 11:18:25 PM 38.0281 -89.6567 323° Northwest 241 277 10,000  Level Kansas City Center
Tue 11:19:27 PM 38.0814 -89.7097 322° Northwest 243 280 10,000 -49 Level Kansas City Center
Tue 11:20:28 PM 38.1325 -89.7608 322° Northwest 239 275 9,900 -390 Descending Kansas City Center
Tue 11:21:30 PM 38.1892 -89.8169 322° Northwest 252 290 9,200 -689 Descending Kansas City Center
Tue 11:22:30 PM 38.2461 -89.8714 323° Northwest 257 296 8,500 -700 Descending Kansas City Center
Tue 11:23:30 PM 38.3033 -89.9292 322° Northwest 261 300 7,800 -634 Descending Kansas City Center
Tue 11:24:33 PM 38.3614 -89.9864 322° Northwest 263 303 7,200 -645 Descending Kansas City Center
Tue 11:25:31 PM 38.4183 -90.0403 323° Northwest 259 298 6,500 -689 Descending Kansas City Center
Tue 11:26:35 PM 38.4742 -90.0944 323° Northwest 256 295 5,800 -683 Descending Kansas City Center
Tue 11:27:34 PM 38.5272 -90.1483 322° Northwest 252 290 5,100 -744 Descending Kansas City Center
Tue 11:28:36 PM 38.5928 -90.2056 326° Northwest 244 281 4,300 -829 Descending Kansas City Center
Tue 11:29:37 PM 38.6486 -90.2353 337° Northwest 233 268 3,400 -984 Descending Kansas City Center
Tue 11:30:38 PM 38.6944 -90.2572 340° North 215 247 2,300 -1,122 Descending Kansas City Center
Tue 11:31:40 PM 38.7247 -90.3111 306° West 197 227 1,100 -829 Descending Kansas City Center
Tue 11:32:41 PM 38.7403 -90.3431 302° West 135 155 600 -492 Descending Kansas City Center
Tue 11:34:00 PM 38.7333 -90.3667 345° North  Level FlightAware Approximate
Tue 11:41:00 PM 38.7487 -90.3700 345° North  Level Estimated

Login

Don't have an account? Register now (free) for customized features, flight alerts, and more!